Flight Track Log - Related Links

Times and Time Zones

All times are in EDT time to prevent confusion due to time zone crossing. See the ASH2792 flight status page for this flight to view local times or setup timezone preferences in your user account.

Time Position Orientation Groundspeed Altitude Reporting Facility
EDT Latitude Longitude Course Direction KTS MPH feet Rate Location/Type
Sun 07:24:16 AM 38.1000 -85.7333 98° East 218 251 2,700  Level Louisville TRACON
Sun 07:25:18 AM 38.0756 -85.6556 112° Southeast 302 348 4,800 2,439 Climbing Indianapolis Center
Sun 07:26:00 AM 38.0622 -85.2588 103° East  Level FlightAware Approximate
Sun 07:26:19 AM 38.1031 -85.5578 70° East 302 348 7,700  Level Indianapolis Center
Sun 07:27:00 AM 38.0377 -85.1241 103° East  Level FlightAware Approximate
Sun 07:27:19 AM 38.0886 -85.4344 98° East 308 354 10,800  Level Indianapolis Center
Sun 07:28:00 AM 38.0197 -84.9880 100° East  Level FlightAware Approximate
Sun 07:28:20 AM 38.0769 -85.3342 98° East 321 369 12,500  Level Indianapolis Center
Sun 07:29:00 AM 38.0047 -84.8582 98° East  Level FlightAware Approximate
Sun 07:29:21 AM 38.0594 -85.1894 99° East 357 411 14,600  Level Indianapolis Center
Sun 07:30:22 AM 38.0425 -85.0567 99° East 373 429 16,600 2,066 Climbing Indianapolis Center
Sun 07:31:23 AM 38.0236 -84.9100 99° East 387 445 18,800 1,820 Climbing Indianapolis Center
Sun 07:32:24 AM 38.0078 -84.7806 99° East 392 451 20,300 1,426 Climbing Indianapolis Center
Sun 07:33:25 AM 37.9881 -84.6364 100° East 406 467 21,700 1,426 Climbing Indianapolis Center
Sun 07:34:26 AM 37.9519 -84.4950 108° East 424 488 23,200 1,230 Climbing Indianapolis Center
Sun 07:35:27 AM 37.8461 -84.4392 157° South 424 488 24,200 1,033 Climbing Indianapolis Center
Sun 07:36:28 AM 37.7356 -84.3850 159° South 430 495 25,300 1,180 Climbing Indianapolis Center
Sun 07:37:29 AM 37.6083 -84.2936 150° Southeast 445 512 26,600 1,230 Climbing Indianapolis Center
Sun 07:38:30 AM 37.4983 -84.2125 150° Southeast 451 519 27,800 984 Climbing Indianapolis Center
Sun 07:39:31 AM 37.3817 -84.1469 156° South 467 537 28,600 590 Climbing Indianapolis Center
Sun 07:40:32 AM 37.2528 -84.1250 172° South 471 542 29,000 197 Climbing Indianapolis Center
Sun 07:41:33 AM 37.1200 -84.1022 172° South 474 545 29,000  Level Indianapolis Center
Sun 07:42:34 AM 36.9878 -84.0800 172° South 479 551 29,000  Level Indianapolis Center
Sun 07:43:35 AM 36.8594 -84.0575 172° South 473 544 29,000  Level Indianapolis Center
Sun 07:44:37 AM 36.7342 -84.0358 172° South 464 534 29,000  Level Indianapolis Center
Sun 07:45:38 AM 36.6083 -84.0147 172° South 460 529 29,000  Level Indianapolis Center
Sun 07:46:39 AM 36.4797 -83.9678 164° South 474 545 29,000  Level Indianapolis Center
Sun 07:47:40 AM 36.3703 -83.8794 147° Southeast 467 537 29,000  Level Indianapolis Center
Sun 07:48:41 AM 36.2622 -83.7875 146° Southeast 468 539 29,000  Level Indianapolis Center
Sun 07:49:42 AM 36.1544 -83.6978 146° Southeast 468 539 29,000  Level Indianapolis Center
Sun 07:50:44 AM 36.0467 -83.6078 146° Southeast 467 537 29,000  Level Indianapolis Center
Sun 07:51:45 AM 35.9297 -83.5078 145° Southeast 467 537 29,000  Level Indianapolis Center
Sun 07:52:46 AM 35.8956 -83.3619 106° East 457 526 29,000  Level Indianapolis Center
Sun 07:53:46 AM 35.8906 -83.2083 92° East 422 486 29,000 -250 Level Atlanta Center
Sun 07:54:46 AM 35.8875 -83.0519 91° East 441 507 28,500 -700 Descending Atlanta Center
Sun 07:55:46 AM 35.8819 -82.9111 93° East 452 520 27,600 -1,000 Descending Atlanta Center
Sun 07:56:46 AM 35.8803 -82.7369 91° East 463 533 26,500 -1,100 Descending Atlanta Center
Sun 07:57:46 AM 35.8764 -82.5831 92° East 455 524 25,400 -1,050 Descending Atlanta Center
Sun 07:58:46 AM 35.8725 -82.4269 92° East 449 517 24,400 -1,000 Descending Atlanta Center
Sun 07:59:46 AM 35.8664 -82.2808 93° East 441 507 23,400 -1,750 Descending Atlanta Center
Sun 08:00:46 AM 35.8619 -82.1247 92° East 426 490 20,900 -2,500 Descending Atlanta Center
Sun 08:01:46 AM 35.8575 -81.9864 92° East 410 472 18,400 -2,300 Descending Atlanta Center
Sun 08:02:46 AM 35.7994 -81.8778 123° Southeast 373 429 16,300 -2,150 Descending Atlanta Center
Sun 08:03:46 AM 35.7331 -81.7797 130° Southeast 373 429 14,100 -2,225 Descending Atlanta Center
Sun 08:04:15 AM 35.6986 -81.7322 132° Southeast 369 425 13,000 -2,000 Descending Atlanta Center
Sun 08:04:46 AM 35.6686 -81.6819 126° Southeast 373 429 12,100 -1,319 Descending Atlanta Center
Sun 08:05:46 AM 35.6106 -81.5942 129° Southeast 359 413 11,000 -550 Descending Atlanta Center
Sun 08:06:46 AM 35.5567 -81.5117 129° Southeast 326 375 11,000  Level Atlanta Center
Sun 08:07:46 AM 35.5092 -81.4417 130° Southeast 305 351 11,000 -300 Level Atlanta Center
Sun 08:08:46 AM 35.5011 -81.3525 96° East 266 306 10,400 -1,050 Descending Atlanta Center
Sun 08:09:46 AM 35.5433 -81.2872 52° Northeast 217 250 8,900 -1,450 Descending Atlanta Center
Sun 08:10:46 AM 35.5539 -81.2003 81° East 229 264 7,500 -950 Descending Atlanta Center
Sun 08:11:46 AM 35.5647 -81.1181 81° East 241 277 7,000 -411 Descending Atlanta Center
Sun 08:11:59 AM 35.5661 -81.0950 86° East 244 281 7,000 -100 Level Atlanta Center
Sun 08:12:46 AM 35.5733 -81.0439 80° East 232 267 6,900 -537 Descending Atlanta Center
Sun 08:13:06 AM 35.5622 -81.0236 124° Southeast 181 208 6,400 -1,000 Descending Atlanta Center
Sun 08:13:46 AM 35.5408 -80.9992 137° Southeast 177 204 5,900 -1,091 Descending Atlanta Center
Sun 08:14:01 AM 35.5200 -80.9972 176° South 186 214 5,400 -711 Descending Atlanta Center
Sun 08:15:02 AM 35.4675 -80.9917 175° South 181 208 5,000 -492 Descending Atlanta Center
Sun 08:16:03 AM 35.4175 -80.9883 177° South 187 215 4,400 -787 Descending Atlanta Center
Sun 08:17:04 AM 35.3672 -80.9825 175° South 184 212 3,400 -938 Descending Atlanta Center
Sun 08:18:11 AM 35.3128 -80.9769 175° South 169 194 2,400 -836 Descending Atlanta Center
Sun 08:19:06 AM 35.2753 -80.9733 176° South 146 168 1,700 -738 Descending Atlanta Center
Sun 08:20:13 AM 35.2336 -80.9722 179° South 139 160 900 -716 Descending Atlanta Center
Sun 08:22:00 AM 35.2137 -80.9491 175° South  Level Estimated

Login

Don't have an account? Register now (free) for customized features, flight alerts, and more!